Time;durP1;ratioP1;P1;durP2;ratioP2;P2;SDS_P1;SDS_P2;PMS_P1;PMS_P2;Temp;Humidity;BMP_temperature;BMP_pressure;BME280_temperature;BME280_humidity;BME280_pressure;Samples;Min_cycle;Max_cycle;Signal;HPM_P1;HPM_P2
2021/03/25 00:00:30;;;;;;;18.25;9.05;;;;;;;-142.13;100.00;58370.81;4983312;28;20266;-72
2021/03/25 00:03:00;;;;;;;18.58;8.68;;;;;;;-142.13;100.00;58370.81;4991688;28;20680;-73
2021/03/25 00:05:31;;;;;;;17.40;8.98;;;;;;;-142.13;100.00;58370.81;4999576;28;20629;-73
2021/03/25 00:07:58;;;;;;;20.45;8.13;;;;;;;-142.13;100.00;58370.81;4969386;28;20620;-74
2021/03/25 00:10:31;;;;;;;16.67;8.35;;;;;;;-142.13;100.00;58370.81;4987235;28;20749;-72
2021/03/25 00:13:06;;;;;;;21.30;10.02;;;;;;;-142.13;100.00;58370.81;4983625;28;20209;-70
2021/03/25 00:15:34;;;;;;;23.42;8.70;;;;;;;-142.13;100.00;58370.81;4987356;28;20190;-69
2021/03/25 00:18:01;;;;;;;23.60;9.90;;;;;;;-142.13;100.00;58370.81;4987212;28;20217;-70
2021/03/25 00:20:29;;;;;;;15.13;7.75;;;;;;;-142.13;100.00;58370.81;4972509;28;20283;-71
2021/03/25 00:22:56;;;;;;;16.50;8.73;;;;;;;-142.13;100.00;58370.81;4988097;28;20338;-70
2021/03/25 00:25:26;;;;;;;19.58;9.13;;;;;;;-142.13;100.00;58370.81;4969426;28;20747;-70
2021/03/25 00:27:53;;;;;;;21.63;9.70;;;;;;;-142.13;100.00;58370.81;4965721;28;20230;-70
2021/03/25 00:30:22;;;;;;;19.02;8.32;;;;;;;-142.13;100.00;58370.81;4990003;28;20198;-70
2021/03/25 00:32:50;;;;;;;20.55;9.43;;;;;;;-142.13;100.00;58370.81;4976431;28;20532;-70
2021/03/25 00:35:18;;;;;;;16.77;8.95;;;;;;;-142.13;100.00;58370.81;4986038;28;20213;-70
2021/03/25 00:37:47;;;;;;;18.00;8.18;;;;;;;-142.13;100.00;58370.81;4987501;28;20611;-70
2021/03/25 00:40:14;;;;;;;23.75;10.45;;;;;;;-142.13;100.00;58370.81;4986828;28;20598;-71
2021/03/25 00:42:41;;;;;;;19.95;8.52;;;;;;;-142.13;100.00;58370.81;4988571;28;20233;-70
2021/03/25 00:45:12;;;;;;;20.05;9.43;;;;;;;-142.13;100.00;58370.81;4983633;28;20572;-70
2021/03/25 00:47:39;;;;;;;20.40;8.68;;;;;;;-142.13;100.00;58370.81;4988169;28;20543;-70
2021/03/25 00:50:08;;;;;;;14.48;8.00;;;;;;;-142.13;100.00;58370.81;4984101;28;20213;-70
2021/03/25 00:52:35;;;;;;;16.15;8.82;;;;;;;-142.13;100.00;58370.81;4983616;28;20283;-70
2021/03/25 00:55:03;;;;;;;19.55;8.82;;;;;;;-142.13;100.00;58370.81;4988226;28;20717;-70
2021/03/25 00:57:30;;;;;;;23.40;8.73;;;;;;;-142.13;100.00;58370.81;4962899;28;20278;-70
2021/03/25 00:59:57;;;;;;;18.13;8.65;;;;;;;-142.13;100.00;58370.81;4987333;28;20204;-70
2021/03/25 01:02:24;;;;;;;22.77;9.88;;;;;;;-142.13;100.00;58370.81;4968714;28;20217;-70
2021/03/25 01:04:51;;;;;;;21.50;9.02;;;;;;;-142.13;100.00;58370.81;4986200;28;20181;-70
2021/03/25 01:07:23;;;;;;;18.20;9.32;;;;;;;-142.13;100.00;58370.81;4987252;28;20921;-70
2021/03/25 01:09:50;;;;;;;17.67;8.35;;;;;;;-142.13;100.00;58370.81;4966952;28;20574;-70
2021/03/25 01:12:17;;;;;;;18.92;8.45;;;;;;;-142.13;100.00;58370.81;4986888;28;20221;-70
2021/03/25 01:14:44;;;;;;;14.43;7.55;;;;;;;-142.13;100.00;58370.81;4986254;28;20199;-70
2021/03/25 01:17:11;;;;;;;16.58;8.02;;;;;;;-142.13;100.00;58370.81;4982571;28;20218;-70
2021/03/25 01:19:38;;;;;;;18.60;8.20;;;;;;;-142.13;100.00;58370.81;4985942;28;20523;-69
2021/03/25 01:22:06;;;;;;;13.57;7.85;;;;;;;-142.13;100.00;58370.81;4985521;28;20548;-70
2021/03/25 01:24:33;;;;;;;16.48;8.50;;;;;;;-142.13;100.00;58370.81;4985788;28;20695;-71
2021/03/25 01:27:01;;;;;;;21.77;8.30;;;;;;;-142.13;100.00;58370.81;4984573;28;20698;-70
2021/03/25 01:29:28;;;;;;;18.20;9.05;;;;;;;-142.13;100.00;58370.81;4985485;28;20186;-71
2021/03/25 01:31:55;;;;;;;16.92;8.90;;;;;;;-142.13;100.00;58370.81;4987593;28;20308;-71
2021/03/25 01:34:22;;;;;;;16.40;8.30;;;;;;;-142.13;100.00;58370.81;4967215;28;20193;-71
2021/03/25 01:36:53;;;;;;;16.67;8.57;;;;;;;-142.13;100.00;58370.81;4984711;28;20269;-71
2021/03/25 01:39:21;;;;;;;20.80;9.38;;;;;;;-142.13;100.00;58370.81;4986368;28;20251;-71
2021/03/25 01:41:49;;;;;;;20.38;8.88;;;;;;;-142.13;100.00;58370.81;4982681;28;20766;-71
2021/03/25 01:47:30;;;;;;;18.92;9.88;;;;;;;-142.13;100.00;58370.81;4989117;28;20307;-71
2021/03/25 01:49:57;;;;;;;20.40;9.20;;;;;;;-142.13;100.00;58370.81;4990387;28;20216;-72
2021/03/25 01:52:50;;;;;;;18.48;8.98;;;;;;;-142.13;100.00;58370.81;4988224;28;20275;-70
2021/03/25 01:55:36;;;;;;;16.45;8.75;;;;;;;-142.13;100.00;58370.81;4989089;28;20641;-70
2021/03/25 01:58:31;;;;;;;16.33;8.30;;;;;;;-142.13;100.00;58370.81;4989102;28;20722;-71
2021/03/25 02:01:09;;;;;;;17.77;8.80;;;;;;;-142.13;100.00;58370.81;4986387;28;20194;-71
2021/03/25 02:03:47;;;;;;;14.25;8.07;;;;;;;-142.13;100.00;58370.81;4991678;28;20221;-70
2021/03/25 02:06:25;;;;;;;17.23;8.10;;;;;;;-142.13;100.00;58370.81;4990017;28;20693;-71
2021/03/25 02:09:05;;;;;;;14.73;7.47;;;;;;;-142.13;100.00;58370.81;4970841;28;20224;-71
2021/03/25 02:11:59;;;;;;;19.02;8.60;;;;;;;-142.13;100.00;58370.81;4991122;28;20197;-70
2021/03/25 02:14:34;;;;;;;17.10;8.52;;;;;;;-142.13;100.00;58370.81;4991190;28;20613;-71
2021/03/25 02:17:13;;;;;;;21.63;8.75;;;;;;;-142.13;100.00;58370.81;4988981;28;20691;-71
2021/03/25 02:20:19;;;;;;;13.95;7.50;;;;;;;-142.13;100.00;58370.81;4989241;28;20280;-71
2021/03/25 02:23:18;;;;;;;14.85;8.52;;;;;;;-142.13;100.00;58370.81;4990201;28;20232;-71
2021/03/25 02:25:50;;;;;;;21.20;7.35;;;;;;;-142.13;100.00;58370.81;4990673;28;20204;-71
2021/03/25 02:28:31;;;;;;;15.65;8.10;;;;;;;-142.13;100.00;58370.81;4988657;28;20225;-72
2021/03/25 02:31:07;;;;;;;13.80;7.35;;;;;;;-142.13;100.00;58370.81;4991099;28;20630;-72
2021/03/25 02:33:35;;;;;;;13.00;7.70;;;;;;;-142.13;100.00;58370.81;4990630;28;20723;-72
2021/03/25 02:36:07;;;;;;;16.42;8.02;;;;;;;-142.13;100.00;58370.81;4987570;28;20280;-71
2021/03/25 02:38:39;;;;;;;15.93;8.02;;;;;;;-142.13;100.00;58370.81;4988030;28;20217;-71
2021/03/25 02:41:12;;;;;;;15.07;6.80;;;;;;;-142.13;100.00;58370.81;4986572;28;20517;-71
2021/03/25 02:43:43;;;;;;;15.68;8.27;;;;;;;-142.13;100.00;58370.81;4987165;28;20231;-71
2021/03/25 02:46:16;;;;;;;16.92;8.98;;;;;;;-142.13;100.00;58370.81;4987702;28;20708;-71
2021/03/25 02:48:47;;;;;;;13.60;7.68;;;;;;;-142.13;100.00;58370.81;4988384;28;20548;-69
2021/03/25 02:51:17;;;;;;;17.25;7.88;;;;;;;-142.13;100.00;58370.81;4989944;28;20258;-70
2021/03/25 02:53:46;;;;;;;23.67;8.45;;;;;;;-142.13;100.00;58370.81;4990215;28;20235;-70
2021/03/25 02:56:19;;;;;;;15.80;8.20;;;;;;;-142.13;100.00;58370.81;4988566;28;20190;-71
2021/03/25 02:58:50;;;;;;;20.02;7.63;;;;;;;-142.13;100.00;58370.81;4990389;28;20563;-70
2021/03/25 03:01:19;;;;;;;12.27;6.75;;;;;;;-142.13;100.00;58370.81;4989905;28;20185;-70
2021/03/25 03:03:52;;;;;;;13.85;8.48;;;;;;;-142.13;100.00;58370.81;4986072;28;20744;-70
2021/03/25 03:06:26;;;;;;;17.80;8.60;;;;;;;-142.13;100.00;58370.81;4988329;28;20359;-70
2021/03/25 03:08:55;;;;;;;17.45;9.20;;;;;;;-142.13;100.00;58370.81;4986857;28;20220;-70
2021/03/25 03:11:27;;;;;;;16.33;9.40;;;;;;;-142.13;100.00;58370.81;4999665;28;20563;-71
2021/03/25 03:13:59;;;;;;;19.88;8.93;;;;;;;-142.13;100.00;58370.81;4985108;28;20611;-70
2021/03/25 03:16:30;;;;;;;18.08;8.65;;;;;;;-142.13;100.00;58370.81;4988097;28;20499;-71
2021/03/25 03:19:02;;;;;;;15.30;8.07;;;;;;;-142.13;100.00;58370.81;4997421;28;20232;-71
2021/03/25 03:21:35;;;;;;;18.45;8.25;;;;;;;-142.13;100.00;58370.81;4988940;28;20618;-71
2021/03/25 03:24:02;;;;;;;14.35;7.93;;;;;;;-142.13;100.00;58370.81;4985104;28;20251;-70
2021/03/25 03:26:35;;;;;;;18.27;8.43;;;;;;;-142.13;100.00;58370.81;4970049;28;20650;-70
2021/03/25 03:29:09;;;;;;;14.00;8.00;;;;;;;-142.13;100.00;58370.81;4991746;28;20216;-70
2021/03/25 03:31:45;;;;;;;17.85;7.95;;;;;;;-142.13;100.00;58370.81;4987962;28;20195;-70
2021/03/25 03:34:15;;;;;;;15.43;7.78;;;;;;;-142.13;100.00;58370.81;4987662;28;20316;-71
2021/03/25 03:36:45;;;;;;;14.80;7.63;;;;;;;-142.13;100.00;58370.81;4985044;28;20214;-71
2021/03/25 03:39:17;;;;;;;14.73;7.80;;;;;;;-142.13;100.00;58370.81;4987790;28;20193;-71
2021/03/25 03:41:49;;;;;;;20.30;8.27;;;;;;;-142.13;100.00;58370.81;4988738;28;20185;-72
2021/03/25 03:44:25;;;;;;;21.83;7.88;;;;;;;-142.13;100.00;58370.81;4988799;28;20240;-70
2021/03/25 03:46:54;;;;;;;13.38;7.70;;;;;;;-142.13;100.00;58370.81;4985243;28;20553;-71
2021/03/25 03:49:26;;;;;;;18.27;8.70;;;;;;;-142.13;100.00;58370.81;4984827;28;20200;-71
2021/03/25 03:52:01;;;;;;;24.90;8.93;;;;;;;-142.13;100.00;58370.81;4984654;28;20270;-71
2021/03/25 03:54:30;;;;;;;15.68;8.07;;;;;;;-142.13;100.00;58370.81;4992868;28;20706;-71
2021/03/25 03:57:03;;;;;;;16.73;8.07;;;;;;;-142.13;100.00;58370.81;5005523;28;20263;-73
2021/03/25 03:59:43;;;;;;;16.15;7.85;;;;;;;-142.13;100.00;58370.81;4989920;28;20196;-71
2021/03/25 04:02:17;;;;;;;11.93;6.88;;;;;;;-142.13;100.00;58370.81;4986561;28;20633;-71
2021/03/25 04:04:55;;;;;;;24.80;7.50;;;;;;;-142.13;100.00;58370.81;4990172;28;20271;-72
2021/03/25 04:07:26;;;;;;;19.50;7.82;;;;;;;-142.13;100.00;58370.81;4986897;28;20223;-72
2021/03/25 04:10:01;;;;;;;15.15;8.18;;;;;;;-142.13;100.00;58370.81;4985239;28;20229;-71
2021/03/25 04:12:32;;;;;;;15.85;7.53;;;;;;;-142.13;100.00;58370.81;4986355;28;20217;-71
2021/03/25 04:15:12;;;;;;;14.25;7.50;;;;;;;-142.13;100.00;58370.81;4984545;28;20193;-71
2021/03/25 04:17:44;;;;;;;19.38;8.45;;;;;;;-142.13;100.00;58370.81;4987177;28;20819;-71
2021/03/25 04:20:15;;;;;;;15.85;8.02;;;;;;;-142.13;100.00;58370.81;4986357;28;20221;-72
2021/03/25 04:22:46;;;;;;;16.25;8.30;;;;;;;-142.13;100.00;58370.81;4987421;28;20533;-71
2021/03/25 04:25:27;;;;;;;16.25;7.47;;;;;;;-142.13;100.00;58370.81;4985933;28;20194;-71
2021/03/25 04:27:58;;;;;;;13.07;7.80;;;;;;;-142.13;100.00;58370.81;4989806;28;20271;-71
2021/03/25 04:30:29;;;;;;;16.15;8.13;;;;;;;-142.13;100.00;58370.81;4986879;28;20197;-71
2021/03/25 04:32:57;;;;;;;16.75;7.80;;;;;;;-142.13;100.00;58370.81;4982847;28;20220;-71
2021/03/25 04:35:24;;;;;;;15.02;7.40;;;;;;;-142.13;100.00;58370.81;4985422;28;20271;-71
2021/03/25 04:37:53;;;;;;;20.63;8.40;;;;;;;-142.13;100.00;58370.81;4982809;28;20606;-70
2021/03/25 04:40:24;;;;;;;14.15;7.50;;;;;;;-142.13;100.00;58370.81;4988393;28;20220;-71
2021/03/25 04:42:52;;;;;;;24.08;8.32;;;;;;;-142.13;100.00;58370.81;4983941;28;20603;-71
2021/03/25 04:45:26;;;;;;;20.52;8.60;;;;;;;-142.13;100.00;58370.81;4987817;28;20890;-72
2021/03/25 04:47:57;;;;;;;13.65;7.55;;;;;;;-142.13;100.00;58370.81;4983656;28;20222;-70
2021/03/25 04:50:28;;;;;;;16.42;8.50;;;;;;;-142.13;100.00;58370.81;4985874;28;20527;-71
2021/03/25 04:53:04;;;;;;;13.35;7.15;;;;;;;-142.13;100.00;58370.81;4965645;28;20803;-72
2021/03/25 04:55:35;;;;;;;15.73;7.43;;;;;;;-142.13;100.00;58370.81;4988824;28;20270;-72
2021/03/25 04:58:07;;;;;;;16.08;7.80;;;;;;;-142.13;100.00;58370.81;4986271;28;20220;-71
2021/03/25 05:00:36;;;;;;;13.98;7.80;;;;;;;-142.13;100.00;58370.81;4987653;28;20240;-70
2021/03/25 05:03:04;;;;;;;16.35;7.85;;;;;;;-142.13;100.00;58370.81;4987784;28;20541;-71
2021/03/25 05:05:34;;;;;;;16.38;7.70;;;;;;;-142.13;100.00;58370.81;4962505;28;20716;-71
2021/03/25 05:08:05;;;;;;;17.45;8.70;;;;;;;-142.13;100.00;58370.81;4985781;28;20746;-71
2021/03/25 05:10:39;;;;;;;13.27;7.63;;;;;;;-142.13;100.00;58370.81;4986762;28;20187;-72
2021/03/25 05:13:06;;;;;;;15.63;6.75;;;;;;;-142.13;100.00;58370.81;4988426;28;20608;-72
2021/03/25 05:15:35;;;;;;;18.27;7.22;;;;;;;-142.13;100.00;58370.81;4987755;28;20583;-72
2021/03/25 05:18:11;;;;;;;15.30;7.85;;;;;;;-142.13;100.00;58370.81;4985398;28;20256;-72
2021/03/25 05:20:43;;;;;;;12.57;6.85;;;;;;;-142.13;100.00;58370.81;4991037;28;20177;-73
2021/03/25 05:23:20;;;;;;;12.98;6.13;;;;;;;-142.13;100.00;58370.81;4966402;28;20584;-72
2021/03/25 05:25:54;;;;;;;17.30;7.55;;;;;;;-142.13;100.00;58370.81;4988296;28;20204;-72
2021/03/25 05:28:28;;;;;;;11.25;6.45;;;;;;;-142.13;100.00;58370.81;4984190;28;20225;-72
2021/03/25 05:30:56;;;;;;;13.38;7.85;;;;;;;-142.13;100.00;58370.81;4973854;28;20557;-72
2021/03/25 05:33:29;;;;;;;14.95;7.20;;;;;;;-142.13;100.00;58370.81;4984419;28;20573;-71
2021/03/25 05:36:01;;;;;;;14.75;8.02;;;;;;;-142.13;100.00;58370.81;4983386;28;20190;-73
2021/03/25 05:38:29;;;;;;;14.93;7.72;;;;;;;-142.13;100.00;58370.81;4975114;28;20550;-72
2021/03/25 05:41:02;;;;;;;14.23;7.72;;;;;;;-142.13;100.00;58370.81;4984172;28;20178;-72
2021/03/25 05:43:50;;;;;;;13.43;7.20;;;;;;;-142.13;100.00;58370.81;4985814;28;20700;-72
2021/03/25 05:46:25;;;;;;;13.20;6.57;;;;;;;-142.13;100.00;58370.81;4986712;28;20644;-71
2021/03/25 05:49:04;;;;;;;12.43;6.68;;;;;;;-142.13;100.00;58370.81;4982616;28;20672;-71
2021/03/25 05:51:40;;;;;;;10.50;5.78;;;;;;;-142.13;100.00;58370.81;4985850;28;20806;-70
2021/03/25 05:54:37;;;;;;;12.95;6.95;;;;;;;-142.13;100.00;58370.81;4985988;28;20208;-71
2021/03/25 05:57:19;;;;;;;10.75;5.55;;;;;;;-142.13;100.00;58370.81;4981994;28;20220;-72
2021/03/25 05:59:56;;;;;;;13.10;6.50;;;;;;;-142.13;100.00;58370.81;4985705;28;20193;-72
2021/03/25 06:02:30;;;;;;;14.30;6.22;;;;;;;-142.13;100.00;58370.81;4984867;28;20231;-71
2021/03/25 06:04:58;;;;;;;13.73;6.85;;;;;;;-142.13;100.00;58370.81;4982834;28;20619;-71
2021/03/25 06:07:56;;;;;;;10.85;7.03;;;;;;;-142.13;100.00;58370.81;4984292;28;20779;-71
2021/03/25 06:10:30;;;;;;;14.27;6.70;;;;;;;-142.13;100.00;58370.81;4985255;28;20188;-71
2021/03/25 06:13:11;;;;;;;12.23;6.15;;;;;;;-142.13;100.00;58370.81;4983599;28;20279;-71
2021/03/25 06:16:16;;;;;;;10.82;5.43;;;;;;;-142.13;100.00;58370.81;4985390;28;20771;-71
2021/03/25 06:18:57;;;;;;;11.43;6.38;;;;;;;-142.13;100.00;58370.81;4914538;28;20240;-71
2021/03/25 06:21:37;;;;;;;15.07;7.00;;;;;;;-142.13;100.00;58370.81;4984567;28;20799;-71
2021/03/25 06:24:22;;;;;;;15.13;7.63;;;;;;;-142.13;100.00;58370.81;4980594;28;20652;-71
2021/03/25 06:26:57;;;;;;;13.68;6.60;;;;;;;-142.13;100.00;58370.81;4982161;28;20263;-71
2021/03/25 06:29:28;;;;;;;12.75;7.10;;;;;;;-142.13;100.00;58370.81;4985435;28;20193;-71
2021/03/25 06:32:00;;;;;;;31.10;15.02;;;;;;;-142.13;100.00;58370.81;4974852;28;20609;-71
2021/03/25 06:34:34;;;;;;;17.67;8.75;;;;;;;-142.13;100.00;58370.81;4988962;28;20659;-71
2021/03/25 06:37:05;;;;;;;14.43;8.45;;;;;;;-142.13;100.00;58370.81;4992748;28;20188;-71
2021/03/25 06:39:41;;;;;;;15.98;7.97;;;;;;;-142.13;100.00;58370.81;4987592;28;20186;-70
2021/03/25 06:42:18;;;;;;;15.63;8.82;;;;;;;-142.13;100.00;58370.81;4987892;28;20220;-70
2021/03/25 06:44:58;;;;;;;21.33;9.52;;;;;;;-142.13;100.00;58370.81;4985332;28;20849;-72
2021/03/25 06:47:49;;;;;;;15.85;8.10;;;;;;;-142.13;100.00;58370.81;4988018;28;20213;-71
2021/03/25 06:50:24;;;;;;;15.82;8.32;;;;;;;-142.13;100.00;58370.81;4984020;28;20212;-71
2021/03/25 06:52:56;;;;;;;19.13;9.13;;;;;;;-142.13;100.00;58370.81;4981325;28;20650;-71
2021/03/25 06:55:26;;;;;;;18.58;8.43;;;;;;;-142.13;100.00;58370.81;4988730;28;20193;-72
2021/03/25 06:57:57;;;;;;;20.95;9.80;;;;;;;-142.13;100.00;58370.81;4984808;28;20218;-72
2021/03/25 07:00:26;;;;;;;25.60;11.70;;;;;;;-142.13;100.00;58370.81;4990312;28;20216;-71
2021/03/25 07:02:55;;;;;;;26.08;14.15;;;;;;;-142.13;100.00;58370.81;4986378;28;20224;-72
2021/03/25 07:05:27;;;;;;;25.90;16.80;;;;;;;-142.13;100.00;58370.81;4987676;28;20276;-71
2021/03/25 07:08:01;;;;;;;20.85;12.68;;;;;;;-142.13;100.00;58370.81;4985194;28;20439;-72
2021/03/25 07:10:29;;;;;;;23.02;13.00;;;;;;;-142.13;100.00;58370.81;4987213;28;20192;-71
2021/03/25 07:13:04;;;;;;;23.20;10.02;;;;;;;-142.13;100.00;58370.81;4991214;28;20715;-72
2021/03/25 07:15:45;;;;;;;17.60;9.37;;;;;;;-142.13;100.00;58370.81;4992444;28;20631;-71
2021/03/25 07:18:28;;;;;;;22.80;13.00;;;;;;;-142.13;100.00;58370.81;4986556;28;20933;-72
2021/03/25 07:21:24;;;;;;;26.07;13.60;;;;;;;-142.13;100.00;58370.81;4986597;28;20454;-72
2021/03/25 07:23:53;;;;;;;28.63;13.63;;;;;;;-142.13;100.00;58370.81;4983035;28;20985;-72
2021/03/25 07:26:28;;;;;;;23.60;13.13;;;;;;;-142.13;100.00;58370.81;4987072;28;20459;-71
2021/03/25 07:29:13;;;;;;;23.80;12.47;;;;;;;-142.13;100.00;58370.81;4985085;28;20480;-72
2021/03/25 07:31:51;;;;;;;20.37;12.10;;;;;;;-142.13;100.00;58370.81;4986110;28;20922;-71
2021/03/25 07:34:28;;;;;;;26.20;13.50;;;;;;;-142.13;100.00;58370.81;4986631;28;20825;-71
2021/03/25 07:36:57;;;;;;;25.27;13.23;;;;;;;-142.13;100.00;58370.81;4977440;28;20470;-73
2021/03/25 07:39:26;;;;;;;30.93;12.83;;;;;;;-142.13;100.00;58370.81;4987199;28;20784;-71
2021/03/25 07:41:56;;;;;;;23.70;12.50;;;;;;;-142.13;100.00;58370.81;4984105;28;20836;-72
2021/03/25 07:44:29;;;;;;;25.73;12.33;;;;;;;-142.13;100.00;58370.81;4987574;28;20858;-69
2021/03/25 07:46:58;;;;;;;26.43;13.43;;;;;;;-142.13;100.00;58370.81;4985274;28;20764;-69
2021/03/25 07:49:26;;;;;;;27.57;12.77;;;;;;;-142.13;100.00;58370.81;4987310;28;20962;-70
2021/03/25 07:51:56;;;;;;;30.53;13.90;;;;;;;-142.13;100.00;58370.81;4987774;28;20762;-69
2021/03/25 07:54:30;;;;;;;24.57;12.90;;;;;;;-142.13;100.00;58370.81;4988358;28;20440;-69
2021/03/25 07:57:06;;;;;;;26.60;12.70;;;;;;;-142.13;100.00;58370.81;4987774;28;20444;-72
2021/03/25 07:59:37;;;;;;;26.67;13.13;;;;;;;-142.13;100.00;58370.81;4988630;28;20816;-71
2021/03/25 08:02:21;;;;;;;19.93;10.33;;;;;;;-142.13;100.00;58370.81;4984697;28;20943;-72
2021/03/25 08:04:50;;;;;;;20.77;10.40;;;;;;;-142.13;100.00;58370.81;4987952;28;20455;-71
2021/03/25 08:07:18;;;;;;;22.40;12.00;;;;;;;-142.13;100.00;58370.81;4986967;28;20464;-72
2021/03/25 08:09:52;;;;;;;24.07;11.33;;;;;;;-142.13;100.00;58370.81;4987934;28;20436;-71
2021/03/25 08:12:26;;;;;;;20.67;11.07;;;;;;;-142.13;100.00;58370.81;4989908;28;20533;-72
2021/03/25 08:15:23;;;;;;;25.20;10.63;;;;;;;-142.13;100.00;58370.81;4982476;28;20505;-71
2021/03/25 08:18:01;;;;;;;19.53;10.63;;;;;;;-142.13;100.00;58370.81;4991200;28;20563;-72
2021/03/25 08:20:37;;;;;;;19.07;10.43;;;;;;;-142.13;100.00;58370.81;4983889;28;20443;-73
2021/03/25 08:23:19;;;;;;;20.30;10.07;;;;;;;-142.13;100.00;58370.81;4986073;28;20949;-72
2021/03/25 08:25:51;;;;;;;19.70;9.20;;;;;;;-142.13;100.00;58370.81;4986400;28;20481;-71
2021/03/25 08:29:02;;;;;;;15.10;7.57;;;;;;;-142.13;100.00;58370.81;4985181;28;20523;-71
2021/03/25 08:31:34;;;;;;;24.80;11.40;;;;;;;-142.13;100.00;58370.81;4951859;28;20815;-72
2021/03/25 08:34:12;;;;;;;17.43;9.20;;;;;;;-142.13;100.00;58370.81;4985004;28;20847;-72
2021/03/25 08:36:57;;;;;;;18.37;7.63;;;;;;;-142.13;100.00;58370.81;4987265;28;20435;-71
2021/03/25 08:39:34;;;;;;;33.50;15.67;;;;;;;-142.13;100.00;58370.81;4983164;28;20896;-72
2021/03/25 08:42:06;;;;;;;27.33;10.20;;;;;;;-142.13;100.00;58370.81;4987408;28;20445;-72
2021/03/25 08:44:41;;;;;;;20.20;6.57;;;;;;;-142.13;100.00;58370.81;4988675;28;20963;-72
2021/03/25 08:47:32;;;;;;;15.43;7.50;;;;;;;-142.13;100.00;58370.81;4984937;28;21215;-71
2021/03/25 08:50:13;;;;;;;12.40;5.90;;;;;;;-142.13;100.00;58370.81;4988113;28;20441;-72
2021/03/25 08:52:43;;;;;;;14.20;4.87;;;;;;;-142.13;100.00;58370.81;4983250;28;20522;-71
2021/03/25 08:55:23;;;;;;;12.80;4.97;;;;;;;-142.13;100.00;58370.81;4967663;28;20449;-72
2021/03/25 08:57:54;;;;;;;9.73;5.20;;;;;;;-142.13;100.00;58370.81;4982278;28;20544;-71
2021/03/25 09:00:28;;;;;;;9.23;4.57;;;;;;;-142.13;100.00;58370.81;4985374;28;20812;-72
2021/03/25 09:03:02;;;;;;;14.73;5.53;;;;;;;-142.13;100.00;58370.81;4980537;28;20521;-72
2021/03/25 09:05:32;;;;;;;11.00;4.77;;;;;;;-142.13;100.00;58370.81;4986484;28;20904;-72
2021/03/25 09:08:01;;;;;;;7.10;4.53;;;;;;;-142.13;100.00;58370.81;4982396;28;20445;-71
2021/03/25 09:10:37;;;;;;;7.63;4.07;;;;;;;-142.13;100.00;58370.81;4986051;28;20436;-72
2021/03/25 09:13:04;;;;;;;5.50;3.30;;;;;;;-142.13;100.00;58370.81;4982156;28;20477;-71
2021/03/25 09:15:32;;;;;;;6.30;4.13;;;;;;;-142.13;100.00;58370.81;4971503;28;20914;-72
2021/03/25 09:18:05;;;;;;;12.73;4.73;;;;;;;-142.13;100.00;58370.81;4990486;28;21149;-72
2021/03/25 09:20:36;;;;;;;6.73;4.23;;;;;;;-142.13;100.00;58370.81;4989039;28;20432;-72
2021/03/25 09:23:45;;;;;;;8.83;3.67;;;;;;;-142.13;100.00;58370.81;4969609;28;20455;-72
2021/03/25 09:26:45;;;;;;;7.13;4.00;;;;;;;-142.13;100.00;58370.81;4985270;28;20479;-73
2021/03/25 09:29:13;;;;;;;10.70;4.17;;;;;;;-142.13;100.00;58370.81;4986192;28;20930;-72
2021/03/25 09:32:32;;;;;;;8.23;2.80;;;;;;;-142.13;100.00;58370.81;4989245;28;20982;-72
2021/03/25 09:35:01;;;;;;;7.20;3.37;;;;;;;-142.13;100.00;58370.81;4984345;28;21139;-73
2021/03/25 09:37:32;;;;;;;7.93;3.07;;;;;;;-142.13;100.00;58370.81;4986913;28;20495;-73
2021/03/25 09:40:28;;;;;;;7.77;3.53;;;;;;;-142.13;100.00;58370.81;4984888;28;20914;-72
2021/03/25 09:43:23;;;;;;;6.60;3.80;;;;;;;-142.13;100.00;58370.81;4983408;28;20464;-72
2021/03/25 09:45:50;;;;;;;6.93;3.80;;;;;;;-142.13;100.00;58370.81;4988307;28;20440;-72
2021/03/25 09:48:26;;;;;;;6.00;3.30;;;;;;;-142.13;100.00;58370.81;4984359;28;20851;-73
2021/03/25 09:51:06;;;;;;;8.57;4.17;;;;;;;-142.13;100.00;58370.81;4982546;28;20443;-73
2021/03/25 09:53:54;;;;;;;9.30;3.87;;;;;;;-142.13;100.00;58370.81;4984401;28;20856;-73
2021/03/25 09:56:35;;;;;;;9.73;4.00;;;;;;;-142.13;100.00;58370.81;4980749;28;20444;-72
2021/03/25 09:59:03;;;;;;;9.90;4.20;;;;;;;-142.13;100.00;58370.81;4981989;28;20860;-73
2021/03/25 10:01:50;;;;;;;7.60;4.27;;;;;;;-142.13;100.00;58370.81;4985352;28;20475;-73
2021/03/25 10:04:28;;;;;;;11.57;4.70;;;;;;;-142.13;100.00;58370.81;4986049;28;20546;-72
2021/03/25 10:07:04;;;;;;;9.70;5.17;;;;;;;-142.13;100.00;58370.81;4984568;28;20971;-73
2021/03/25 10:09:51;;;;;;;13.83;4.57;;;;;;;-142.13;100.00;58370.81;4989664;28;20729;-73
2021/03/25 10:13:01;;;;;;;14.97;6.27;;;;;;;-142.13;100.00;58370.81;4988703;28;20470;-73
2021/03/25 10:15:50;;;;;;;13.30;6.00;;;;;;;-142.13;100.00;58370.81;4970138;28;20452;-72
2021/03/25 10:18:58;;;;;;;9.37;4.93;;;;;;;-142.13;100.00;58370.81;4988723;28;20463;-73
2021/03/25 10:22:04;;;;;;;12.27;6.17;;;;;;;-142.13;100.00;58370.81;4971972;28;20918;-73
2021/03/25 10:24:51;;;;;;;11.70;5.30;;;;;;;-142.13;100.00;58370.81;4990137;28;20859;-72
2021/03/25 10:27:36;;;;;;;12.47;6.20;;;;;;;-142.13;100.00;58370.81;4972523;28;20931;-73
2021/03/25 10:30:20;;;;;;;13.07;6.50;;;;;;;-142.13;100.00;58370.81;4987672;28;20945;-73
2021/03/25 10:32:47;;;;;;;13.90;5.83;;;;;;;-142.13;100.00;58370.81;4984599;28;20563;-73
2021/03/25 10:35:23;;;;;;;12.67;5.97;;;;;;;-142.13;100.00;58370.81;4988342;28;20911;-73
2021/03/25 10:37:53;;;;;;;14.30;6.47;;;;;;;-142.13;100.00;58370.81;4987161;28;20890;-73
2021/03/25 10:40:29;;;;;;;11.87;5.90;;;;;;;-142.13;100.00;58370.81;4986424;28;20443;-73
2021/03/25 10:42:59;;;;;;;22.73;5.87;;;;;;;-142.13;100.00;58370.81;4985084;28;21006;-73
2021/03/25 10:45:38;;;;;;;8.57;5.50;;;;;;;-142.13;100.00;58370.81;4987442;28;20448;-71
2021/03/25 10:48:21;;;;;;;12.70;6.03;;;;;;;-142.13;100.00;58370.81;4987272;28;20526;-70
2021/03/25 10:50:53;;;;;;;11.40;6.03;;;;;;;-142.13;100.00;58370.81;4987267;28;20424;-71
2021/03/25 10:53:24;;;;;;;11.17;5.97;;;;;;;-142.13;100.00;58370.81;4988909;28;20981;-71
2021/03/25 10:56:01;;;;;;;12.93;6.87;;;;;;;-142.13;100.00;58370.81;4990109;28;20762;-71
2021/03/25 10:58:33;;;;;;;13.90;6.70;;;;;;;-142.13;100.00;58370.81;4988079;28;21163;-72
2021/03/25 11:01:06;;;;;;;9.60;4.80;;;;;;;-142.13;100.00;58370.81;4974209;28;21145;-71
2021/03/25 11:03:35;;;;;;;10.23;5.03;;;;;;;-142.13;100.00;58370.81;4987071;28;20487;-70
2021/03/25 11:06:04;;;;;;;9.63;4.80;;;;;;;-142.13;100.00;58370.81;4980368;28;20853;-71
2021/03/25 11:08:37;;;;;;;13.70;6.30;;;;;;;-142.13;100.00;58370.81;4968477;28;20464;-70
2021/03/25 11:11:17;;;;;;;13.20;5.00;;;;;;;-142.13;100.00;58370.81;4966451;28;20437;-71
2021/03/25 11:13:55;;;;;;;9.20;5.00;;;;;;;-142.13;100.00;58370.81;4971642;28;20790;-71
2021/03/25 11:16:23;;;;;;;9.30;5.27;;;;;;;-142.13;100.00;58370.81;4969864;28;20843;-70
2021/03/25 11:18:56;;;;;;;13.30;4.50;;;;;;;-142.13;100.00;58370.81;4965803;28;20758;-71
2021/03/25 11:21:29;;;;;;;22.70;4.10;;;;;;;-142.13;100.00;58370.81;4967969;28;20449;-71
2021/03/25 11:24:05;;;;;;;8.47;4.70;;;;;;;-142.13;100.00;58370.81;4970853;28;20963;-71
2021/03/25 11:26:34;;;;;;;8.90;5.00;;;;;;;-142.13;100.00;58370.81;4967774;28;20943;-71
2021/03/25 11:29:04;;;;;;;12.30;4.80;;;;;;;-142.13;100.00;58370.81;4965132;28;20886;-71
2021/03/25 11:31:33;;;;;;;7.80;4.07;;;;;;;-142.13;100.00;58370.81;4970018;28;20487;-71
2021/03/25 11:34:00;;;;;;;11.43;4.17;;;;;;;-142.13;100.00;58370.81;4969050;28;20765;-70
2021/03/25 11:36:34;;;;;;;7.73;4.67;;;;;;;-142.13;100.00;58370.81;4967213;28;20512;-71
2021/03/25 11:39:31;;;;;;;6.47;3.60;;;;;;;-142.13;100.00;58370.81;4969828;28;20492;-71